Time;durP1;ratioP1;P1;durP2;ratioP2;P2;SDS_P1;SDS_P2;PMS_P1;PMS_P2;Temp;Humidity;BMP_temperature;BMP_pressure;BME280_temperature;BME280_humidity;BME280_pressure;Samples;Min_cycle;Max_cycle;Signal;HPM_P1;HPM_P2
2022/08/12 00:44:51;;;;;;;;;;;17.70;99.90;;;;;;5040604;28;20410;-83
2022/08/12 00:47:18;;;;;;;;;;;17.70;99.90;;;;;;5047271;28;19945;-84
2022/08/12 00:49:44;;;;;;;;;;;17.70;99.90;;;;;;5028904;28;19985;-84
2022/08/12 00:52:12;;;;;;;;;;;17.70;99.90;;;;;;5026380;28;20450;-83
2022/08/12 00:54:40;;;;;;;;;;;17.60;99.90;;;;;;5022457;28;20347;-82
2022/08/12 00:57:08;;;;;;;;;;;17.20;99.90;;;;;;5024408;28;20026;-84
2022/08/12 00:59:34;;;;;;;;;;;17.70;99.90;;;;;;5027044;28;20067;-84
2022/08/12 01:02:02;;;;;;;;;;;17.60;99.90;;;;;;5044838;28;19936;-83
2022/08/12 01:12:44;;;;;;;;;;;;;;;;;;5033923;28;19925;-84
2022/08/12 01:15:11;;;;;;;;;;;17.50;99.90;;;;;;5055879;28;19929;-84
2022/08/12 01:17:40;;;;;;;;;;;17.50;99.90;;;;;;5028994;28;20371;-81
2022/08/12 01:20:07;;;;;;;;;;;17.40;99.90;;;;;;5045409;28;19929;-84
2022/08/12 01:22:40;;;;;;;;;;;17.40;99.90;;;;;;5028754;28;19979;-84
2022/08/12 01:25:06;;;;;;;;;;;;;;;;;;5044112;28;19932;-84
2022/08/12 01:27:33;;;;;;;;;;;17.30;99.90;;;;;;5028180;28;20119;-85
2022/08/12 01:30:01;;;;;;;;;;;17.30;99.90;;;;;;5042354;28;19928;-84
2022/08/12 01:32:27;;;;;;;;;;;17.20;99.90;;;;;;5023419;28;19936;-84
2022/08/12 01:35:03;;;;;;;;;;;17.20;99.90;;;;;;5041057;28;20123;-84
2022/08/12 01:37:32;;;;;;;;;;;17.20;99.90;;;;;;5058769;28;19921;-83
2022/08/12 01:40:00;;;;;;;;;;;17.30;99.90;;;;;;5039872;28;19943;-84
2022/08/12 01:42:30;;;;;;;;;;;17.30;99.90;;;;;;5021270;28;20513;-83
2022/08/12 01:44:56;;;;;;;;;;;17.30;99.90;;;;;;5042564;28;19925;-83
2022/08/12 01:47:41;;;;;;;;;;;17.30;99.90;;;;;;5043803;28;19968;-83
2022/08/12 01:50:15;;;;;;;;;;;17.30;99.90;;;;;;5015746;28;20324;-83
2022/08/12 01:52:51;;;;;;;;;;;17.30;99.90;;;;;;5038788;28;20368;-83
2022/08/12 01:55:18;;;;;;;;;;;17.30;99.90;;;;;;5046494;28;19990;-83
2022/08/12 01:57:48;;;;;;;;;;;17.30;99.90;;;;;;5047414;28;19932;-83
2022/08/12 02:00:15;;;;;;;;;;;17.30;99.90;;;;;;5045331;28;20015;-84
2022/08/12 02:02:41;;;;;;;;;;;17.20;99.90;;;;;;5040219;28;20550;-83
2022/08/12 02:12:04;;;;;;;;;;;17.20;99.90;;;;;;5026666;28;19932;-78
2022/08/12 02:15:14;;;;;;;;;;;17.10;99.90;;;;;;5029095;28;19937;-78
2022/08/12 02:17:47;;;;;;;;;;;17.10;99.90;;;;;;5010592;28;20603;-77
2022/08/12 02:20:26;;;;;;;;;;;17.10;99.90;;;;;;5025130;28;19929;-78
2022/08/12 02:22:51;;;;;;;;;;;17.10;99.90;;;;;;5012353;28;20008;-78
2022/08/12 02:25:18;;;;;;;;;;;17.10;99.90;;;;;;5034241;28;19997;-78
2022/08/12 02:27:46;;;;;;;;;;;17.10;99.90;;;;;;5026925;28;19936;-78
2022/08/12 02:30:13;;;;;;;;;;;17.10;99.90;;;;;;5021428;28;19929;-78
2022/08/12 02:32:43;;;;;;;;;;;17.00;99.90;;;;;;5026536;28;19940;-77
2022/08/12 02:35:18;;;;;;;;;;;17.10;99.90;;;;;;5037055;28;19940;-78
2022/08/12 02:37:51;;;;;;;;;;;17.00;99.90;;;;;;5028376;28;20023;-79
2022/08/12 02:40:18;;;;;;;;;;;16.90;99.90;;;;;;5029480;28;19925;-78
2022/08/12 02:43:06;;;;;;;;;;;16.90;99.90;;;;;;5031585;28;19929;-78
2022/08/12 02:45:37;;;;;;;;;;;16.90;99.90;;;;;;5025327;28;19929;-78
2022/08/12 02:48:10;;;;;;;;;;;16.80;99.90;;;;;;5032432;28;19933;-78
2022/08/12 02:50:39;;;;;;;;;;;16.80;99.90;;;;;;5036576;28;19925;-78
2022/08/12 02:53:06;;;;;;;;;;;16.70;99.90;;;;;;5014727;28;19977;-78
2022/08/12 02:55:35;;;;;;;;;;;16.70;99.90;;;;;;5027963;28;20303;-78
2022/08/12 02:58:08;;;;;;;;;;;16.60;99.90;;;;;;5012678;28;19925;-78
2022/08/12 03:00:37;;;;;;;;;;;16.60;99.90;;;;;;5028613;28;19979;-79
2022/08/12 03:03:08;;;;;;;;;;;16.70;99.90;;;;;;5011194;28;19929;-79
2022/08/12 03:05:35;;;;;;;;;;;16.60;99.90;;;;;;5021153;28;19925;-78
2022/08/12 03:08:03;;;;;;;;;;;16.70;99.90;;;;;;5027834;28;19940;-78
2022/08/12 03:10:34;;;;;;;;;;;16.70;99.90;;;;;;5027877;28;20620;-78
2022/08/12 03:13:02;;;;;;;;;;;16.70;99.90;;;;;;5012118;28;20279;-78
2022/08/12 03:15:30;;;;;;;;;;;16.60;99.90;;;;;;5009358;28;19937;-78
2022/08/12 03:20:24;;;;;;;;;;;16.50;99.90;;;;;;5045561;28;19941;-78
2022/08/12 03:23:02;;;;;;;;;;;16.50;99.90;;;;;;5031195;28;19928;-77
2022/08/12 03:25:28;;;;;;;;;;;;;;;;;;5030744;28;19933;-78
2022/08/12 03:27:55;;;;;;;;;;;16.50;99.90;;;;;;5015550;28;19924;-78
2022/08/12 03:30:25;;;;;;;;;;;16.50;99.90;;;;;;5028955;28;19925;-79
2022/08/12 03:32:52;;;;;;;;;;;16.50;99.90;;;;;;5014986;28;20099;-80
2022/08/12 03:35:25;;;;;;;;;;;16.50;99.90;;;;;;5031627;28;19925;-78
2022/08/12 03:38:00;;;;;;;;;;;16.50;99.90;;;;;;5013940;28;19924;-79
2022/08/12 04:02:39;;;;;;;;;;;16.40;99.90;;;;;;5028082;28;20270;-78
2022/08/12 04:05:14;;;;;;;;;;;16.40;99.90;;;;;;5030419;28;19949;-79
2022/08/12 04:07:40;;;;;;;;;;;16.30;99.90;;;;;;5014212;28;19924;-79
2022/08/12 04:10:06;;;;;;;;;;;16.30;99.90;;;;;;5006160;28;19971;-80
2022/08/12 04:15:23;;;;;;;;;;;16.30;99.90;;;;;;5037122;28;19952;-78
2022/08/12 04:17:51;;;;;;;;;;;16.30;99.90;;;;;;4998496;28;19932;-78
2022/08/12 04:20:18;;;;;;;;;;;16.20;99.90;;;;;;5032701;28;20298;-79
2022/08/12 04:22:45;;;;;;;;;;;16.20;99.90;;;;;;5032268;28;19929;-80
2022/08/12 04:25:11;;;;;;;;;;;16.20;99.90;;;;;;5027451;28;19943;-78
2022/08/12 04:27:38;;;;;;;;;;;16.20;99.90;;;;;;5037004;28;19953;-78
2022/08/12 04:30:06;;;;;;;;;;;16.20;99.90;;;;;;5015397;28;20353;-79
2022/08/12 04:32:53;;;;;;;;;;;16.20;99.90;;;;;;5018541;28;19928;-79
2022/08/12 04:35:21;;;;;;;;;;;16.20;99.90;;;;;;5018373;28;19940;-78
2022/08/12 04:37:57;;;;;;;;;;;16.20;99.90;;;;;;5030229;28;19975;-78
2022/08/12 04:40:24;;;;;;;;;;;16.10;99.90;;;;;;5045521;28;20429;-78
2022/08/12 04:42:59;;;;;;;;;;;16.10;99.90;;;;;;5008207;28;19925;-78
2022/08/12 04:45:25;;;;;;;;;;;16.10;99.90;;;;;;5058136;22;19959;-78
2022/08/12 04:47:51;;;;;;;;;;;16.00;99.90;;;;;;5016625;28;19929;-78
2022/08/12 04:50:18;;;;;;;;;;;16.10;99.90;;;;;;5036986;28;20568;-78
2022/08/12 04:52:44;;;;;;;;;;;16.20;99.90;;;;;;5027293;28;20098;-78
2022/08/12 04:55:11;;;;;;;;;;;16.20;99.90;;;;;;5061128;28;19934;-79
2022/08/12 04:57:37;;;;;;;;;;;16.10;99.90;;;;;;5048580;28;20303;-79
2022/08/12 05:00:09;;;;;;;;;;;16.20;99.90;;;;;;5055283;28;20031;-79
2022/08/12 05:02:38;;;;;;;;;;;16.10;99.90;;;;;;5024457;28;20011;-78
2022/08/12 05:05:05;;;;;;;;;;;16.00;99.90;;;;;;5054070;28;19929;-78
2022/08/12 05:07:32;;;;;;;;;;;16.10;99.90;;;;;;5032446;28;20302;-78
2022/08/12 05:09:57;;;;;;;;;;;16.10;99.90;;;;;;5027932;28;19935;-80
2022/08/12 05:12:25;;;;;;;;;;;16.10;99.90;;;;;;5047535;28;20016;-79
2022/08/12 05:14:51;;;;;;;;;;;16.10;99.90;;;;;;5029732;28;20035;-79
2022/08/12 05:17:16;;;;;;;;;;;16.20;99.90;;;;;;5035437;28;20047;-80
2022/08/12 05:19:42;;;;;;;;;;;16.20;99.90;;;;;;5038904;28;20126;-78
2022/08/12 05:22:08;;;;;;;;;;;16.20;99.90;;;;;;5030708;28;19928;-78
2022/08/12 05:24:34;;;;;;;;;;;16.20;99.90;;;;;;5055655;28;19986;-79
2022/08/12 05:27:00;;;;;;;;;;;16.30;99.90;;;;;;5038214;28;20335;-79
2022/08/12 05:29:28;;;;;;;;;;;16.30;99.90;;;;;;5030121;28;20401;-79
2022/08/12 05:31:55;;;;;;;;;;;16.40;99.90;;;;;;5021210;28;20021;-79
2022/08/12 05:34:22;;;;;;;;;;;16.40;99.90;;;;;;5032691;28;19966;-78
2022/08/12 05:36:50;;;;;;;;;;;16.50;99.90;;;;;;5049950;28;19925;-78
2022/08/12 05:39:18;;;;;;;;;;;16.50;99.90;;;;;;5050063;28;19932;-79
2022/08/12 05:41:43;;;;;;;;;;;16.60;99.90;;;;;;5044410;28;19979;-79
2022/08/12 05:44:12;;;;;;;;;;;16.70;99.90;;;;;;5038529;28;20348;-79
2022/08/12 05:46:38;;;;;;;;;;;16.80;99.90;;;;;;5030755;28;19975;-78
2022/08/12 05:49:08;;;;;;;;;;;16.90;99.90;;;;;;5050919;28;20283;-80
2022/08/12 05:51:35;;;;;;;;;;;17.00;99.90;;;;;;5032291;28;20474;-80
2022/08/12 05:54:01;;;;;;;;;;;17.10;99.90;;;;;;5032988;28;19935;-78
2022/08/12 05:56:34;;;;;;;;;;;17.20;99.90;;;;;;5049982;28;20381;-76
2022/08/12 05:59:01;;;;;;;;;;;17.40;99.90;;;;;;5030936;28;20398;-82
2022/08/12 06:01:27;;;;;;;;;;;17.50;99.90;;;;;;5028786;28;19925;-86
2022/08/12 06:03:54;;;;;;;;;;;17.70;99.90;;;;;;5030005;28;20015;-82
2022/08/12 06:06:20;;;;;;;;;;;17.80;99.90;;;;;;5076628;28;19925;-82
2022/08/12 06:08:52;;;;;;;;;;;18.00;99.90;;;;;;5032456;28;19925;-80
2022/08/12 06:11:18;;;;;;;;;;;18.10;99.90;;;;;;5077310;28;19925;-82
2022/08/12 06:13:45;;;;;;;;;;;18.30;99.90;;;;;;5033666;28;20534;-78
2022/08/12 06:16:13;;;;;;;;;;;18.40;99.90;;;;;;5032729;28;19993;-79
2022/08/12 06:18:40;;;;;;;;;;;18.70;99.90;;;;;;5018697;28;19925;-79
2022/08/12 06:21:06;;;;;;;;;;;18.80;99.90;;;;;;5026250;28;19932;-79
2022/08/12 06:23:33;;;;;;;;;;;19.00;99.90;;;;;;5043320;28;19925;-78
2022/08/12 06:25:59;;;;;;;;;;;19.10;99.90;;;;;;5038779;22;20600;-80
2022/08/12 06:28:29;;;;;;;;;;;19.20;99.90;;;;;;5032595;28;19932;-80
2022/08/12 06:30:55;;;;;;;;;;;19.30;99.90;;;;;;5022645;28;19940;-80
2022/08/12 06:33:21;;;;;;;;;;;19.50;99.90;;;;;;5043743;28;19929;-79
2022/08/12 06:35:48;;;;;;;;;;;19.60;99.90;;;;;;5047900;28;19935;-82
2022/08/12 06:38:18;;;;;;;;;;;19.70;99.90;;;;;;5031721;28;19928;-81
2022/08/12 06:43:29;;;;;;;;;;;20.00;99.90;;;;;;5048268;28;19987;-81
2022/08/12 06:45:58;;;;;;;;;;;20.10;99.90;;;;;;5046369;28;20407;-81
2022/08/12 06:48:27;;;;;;;;;;;20.20;99.90;;;;;;5030946;28;19928;-80
2022/08/12 06:50:54;;;;;;;;;;;20.50;99.90;;;;;;5030840;28;19948;-78
2022/08/12 06:53:22;;;;;;;;;;;20.80;99.90;;;;;;5049003;28;19971;-78
2022/08/12 06:55:55;;;;;;;;;;;20.90;99.90;;;;;;5046440;28;20279;-76
2022/08/12 06:58:23;;;;;;;;;;;21.20;99.90;;;;;;5031194;28;20338;-82
2022/08/12 07:00:54;;;;;;;;;;;21.70;99.90;;;;;;5026878;28;20171;-81
2022/08/12 07:03:24;;;;;;;;;;;21.90;99.90;;;;;;5037878;28;20426;-79
2022/08/12 07:06:05;;;;;;;;;;;22.00;99.90;;;;;;5052285;28;19929;-80
2022/08/12 07:08:32;;;;;;;;;;;22.10;99.90;;;;;;5049493;28;20362;-81
2022/08/12 07:11:10;;;;;;;;;;;22.10;99.90;;;;;;5034453;28;20329;-83
2022/08/12 07:13:52;;;;;;;;;;;22.40;99.90;;;;;;5048981;28;19929;-83
2022/08/12 07:16:19;;;;;;;;;;;22.70;99.90;;;;;;5053562;28;19947;-80
2022/08/12 07:18:49;;;;;;;;;;;23.00;99.90;;;;;;5053581;28;19936;-84
2022/08/12 07:21:15;;;;;;;;;;;23.30;99.90;;;;;;5109316;23;19959;-81
2022/08/12 07:23:42;;;;;;;;;;;23.70;99.90;;;;;;5018393;28;20441;-81
2022/08/12 07:26:09;;;;;;;;;;;24.30;99.90;;;;;;5045924;28;19991;-81
2022/08/12 07:28:38;;;;;;;;;;;24.80;99.90;;;;;;5015192;28;19952;-80
2022/08/12 07:31:07;;;;;;;;;;;25.40;99.90;;;;;;5009934;28;20425;-82
2022/08/12 07:33:37;;;;;;;;;;;26.30;99.90;;;;;;5024781;28;19925;-82
2022/08/12 07:36:05;;;;;;;;;;;27.10;99.90;;;;;;5018298;28;19925;-83
2022/08/12 07:38:47;;;;;;;;;;;27.80;98.00;;;;;;5025798;28;20289;-88
2022/08/12 07:41:18;;;;;;;;;;;28.40;95.20;;;;;;5010809;28;20335;-84
2022/08/12 07:43:48;;;;;;;;;;;29.10;92.60;;;;;;5040287;28;19980;-82
2022/08/12 07:46:15;;;;;;;;;;;29.60;91.90;;;;;;5009796;28;19929;-80
2022/08/12 07:48:43;;;;;;;;;;;30.10;88.90;;;;;;5026884;28;19925;-83
2022/08/12 07:51:09;;;;;;;;;;;30.60;85.10;;;;;;5024886;28;19979;-80
2022/08/12 07:53:35;;;;;;;;;;;31.00;81.40;;;;;;5017989;28;19933;-79
2022/08/12 07:56:02;;;;;;;;;;;31.00;79.70;;;;;;5009620;28;19926;-82
2022/08/12 07:58:28;;;;;;;;;;;31.20;79.20;;;;;;5025462;28;20105;-78
2022/08/12 08:00:56;;;;;;;;;;;31.40;78.90;;;;;;5023112;28;19933;-80
2022/08/12 08:03:26;;;;;;;;;;;31.70;78.30;;;;;;5025869;28;19933;-80
2022/08/12 08:05:51;;;;;;;;;;;32.00;76.20;;;;;;5010665;28;19932;-79
2022/08/12 08:08:22;;;;;;;;;;;32.40;76.30;;;;;;5010686;28;19926;-78
2022/08/12 08:10:48;;;;;;;;;;;32.60;73.40;;;;;;5004667;28;19929;-83
2022/08/12 08:13:17;;;;;;;;;;;32.90;73.30;;;;;;5028167;28;20063;-80
2022/08/12 08:15:46;;;;;;;;;;;33.10;73.30;;;;;;5007850;28;20016;-78
2022/08/12 08:18:15;;;;;;;;;;;33.00;70.90;;;;;;5028971;28;19940;-82
2022/08/12 08:20:42;;;;;;;;;;;33.10;69.50;;;;;;5027364;28;19925;-80
2022/08/12 08:23:14;;;;;;;;;;;33.10;69.00;;;;;;5009038;28;19925;-81
2022/08/12 08:26:00;;;;;;;;;;;33.10;66.80;;;;;;5021103;28;20055;-86
2022/08/12 08:29:12;;;;;;;;;;;33.30;69.50;;;;;;5013307;28;19921;-82
2022/08/12 08:31:45;;;;;;;;;;;33.10;66.80;;;;;;5003674;28;19933;-80
2022/08/12 08:34:45;;;;;;;;;;;33.40;65.90;;;;;;4967400;28;19934;-79
2022/08/12 08:37:31;;;;;;;;;;;33.20;65.80;;;;;;4950765;28;19926;-78
2022/08/12 08:42:35;;;;;;;;;;;33.20;67.70;;;;;;4953333;28;20002;-79
2022/08/12 08:42:57;;;;;;;;;;;33.10;65.10;;;;;;4990060;28;20016;-83
2022/08/12 08:45:24;;;;;;;;;;;33.10;65.10;;;;;;4971417;28;20369;-80
2022/08/12 08:47:59;;;;;;;;;;;33.20;65.80;;;;;;4972962;28;19935;-87
2022/08/12 08:50:26;;;;;;;;;;;33.10;65.20;;;;;;4993936;28;19933;-81
2022/08/12 08:52:53;;;;;;;;;;;33.40;65.60;;;;;;4984982;28;20028;-81
2022/08/12 08:55:26;;;;;;;;;;;33.40;65.00;;;;;;4993656;28;20043;-79
2022/08/12 08:57:55;;;;;;;;;;;33.40;66.40;;;;;;4974369;28;19955;-84
2022/08/12 09:00:24;;;;;;;;;;;33.40;67.10;;;;;;4973459;28;19936;-80
2022/08/12 09:03:26;;;;;;;;;;;33.30;66.80;;;;;;4991163;28;19929;-80
2022/08/12 09:05:55;;;;;;;;;;;33.20;65.90;;;;;;5004651;28;20187;-77
2022/08/12 09:15:09;;;;;;;;;;;32.20;67.00;;;;;;5027631;28;20332;-84
2022/08/12 09:17:37;;;;;;;;;;;31.90;67.10;;;;;;4988712;28;20092;-80
2022/08/12 09:20:04;;;;;;;;;;;31.50;65.80;;;;;;4993642;28;19932;-79
2022/08/12 09:22:31;;;;;;;;;;;31.30;65.40;;;;;;4988779;28;19981;-78
2022/08/12 09:24:59;;;;;;;;;;;31.10;64.90;;;;;;4989447;28;20465;-79
2022/08/12 09:27:25;;;;;;;;;;;31.10;67.70;;;;;;4989391;28;19930;-79
2022/08/12 09:29:51;;;;;;;;;;;31.10;66.00;;;;;;4987353;28;19992;-79
2022/08/12 09:32:17;;;;;;;;;;;31.10;64.30;;;;;;4992075;28;19931;-81
2022/08/12 09:34:44;;;;;;;;;;;31.10;64.90;;;;;;4994206;28;20012;-79
2022/08/12 09:37:41;;;;;;;;;;;31.20;65.40;;;;;;4993543;28;20371;-87
2022/08/12 09:40:30;;;;;;;;;;;31.20;63.50;;;;;;4992040;28;19925;-86
2022/08/12 09:49:16;;;;;;;;;;;31.50;62.90;;;;;;4986191;28;19929;-85
2022/08/12 09:51:42;;;;;;;;;;;31.60;66.50;;;;;;4971038;28;20332;-84
2022/08/12 09:54:11;;;;;;;;;;;31.70;66.00;;;;;;4987107;28;19926;-85
2022/08/12 09:56:38;;;;;;;;;;;31.90;65.60;;;;;;5006037;28;20308;-87
2022/08/12 09:59:08;;;;;;;;;;;32.00;64.40;;;;;;4988410;28;19933;-84
2022/08/12 10:01:38;;;;;;;;;;;32.10;64.50;;;;;;4989187;28;19929;-79
2022/08/12 10:04:09;;;;;;;;;;;32.20;63.90;;;;;;5005444;28;19933;-82
2022/08/12 10:06:42;;;;;;;;;;;32.30;63.90;;;;;;4989124;28;19925;-88
2022/08/12 10:09:08;;;;;;;;;;;32.40;64.20;;;;;;4987910;28;19926;-84
2022/08/12 10:14:19;;;;;;;;;;;32.50;62.70;;;;;;4988483;28;19987;-85
2022/08/12 10:16:53;;;;;;;;;;;32.60;60.90;;;;;;4996090;28;19925;-85
2022/08/12 10:19:23;;;;;;;;;;;32.40;61.00;;;;;;4980095;28;19936;-83
2022/08/12 10:21:53;;;;;;;;;;;32.50;61.30;;;;;;5027236;28;19936;-87
2022/08/12 10:24:22;;;;;;;;;;;32.40;59.30;;;;;;5027493;28;20012;-80
2022/08/12 10:29:37;;;;;;;;;;;32.60;61.70;;;;;;5039574;28;20276;-80
2022/08/12 10:32:05;;;;;;;;;;;32.70;62.30;;;;;;5028484;28;19979;-84
2022/08/12 10:34:32;;;;;;;;;;;32.90;60.90;;;;;;5036452;28;19925;-84
2022/08/12 10:37:05;;;;;;;;;;;33.10;60.20;;;;;;5012227;28;19975;-80
2022/08/12 10:39:34;;;;;;;;;;;32.90;57.50;;;;;;5010460;28;19972;-82
2022/08/12 10:44:47;;;;;;;;;;;33.00;57.20;;;;;;5028411;28;20074;-82
2022/08/12 10:47:15;;;;;;;;;;;33.10;58.20;;;;;;5028414;28;19925;-79
2022/08/12 10:49:45;;;;;;;;;;;33.10;58.10;;;;;;5026746;28;19929;-81
2022/08/12 10:52:11;;;;;;;;;;;33.20;57.80;;;;;;5028353;28;19930;-81
2022/08/12 10:54:45;;;;;;;;;;;33.20;57.30;;;;;;5012150;28;20252;-79
2022/08/12 10:57:16;;;;;;;;;;;33.30;58.60;;;;;;5026118;28;19983;-83
2022/08/12 10:59:44;;;;;;;;;;;33.40;56.80;;;;;;5012550;28;19925;-79
2022/08/12 11:02:12;;;;;;;;;;;33.20;55.30;;;;;;5030399;28;19929;-79
2022/08/12 11:08:13;;;;;;;;;;;33.30;55.00;;;;;;5031836;28;19932;-78
2022/08/12 11:13:54;;;;;;;;;;;33.20;53.50;;;;;;5033522;28;19932;-82
2022/08/12 11:16:20;;;;;;;;;;;33.30;55.70;;;;;;5027747;28;19952;-80
2022/08/12 11:18:46;;;;;;;;;;;33.40;56.40;;;;;;5027449;28;20391;-78
2022/08/12 11:21:19;;;;;;;;;;;33.40;55.60;;;;;;4998301;28;19925;-83
2022/08/12 11:23:45;;;;;;;;;;;33.50;53.80;;;;;;5027476;28;19969;-81
2022/08/12 11:26:14;;;;;;;;;;;33.60;54.90;;;;;;5041844;28;19926;-80
2022/08/12 11:28:44;;;;;;;;;;;33.60;56.10;;;;;;5010942;28;20372;-81
2022/08/12 11:31:10;;;;;;;;;;;33.60;55.90;;;;;;5010439;28;20023;-80
2022/08/12 11:33:36;;;;;;;;;;;33.70;55.80;;;;;;5028035;28;20385;-80
2022/08/12 11:36:08;;;;;;;;;;;33.80;54.10;;;;;;5027035;28;19921;-82
2022/08/12 11:38:40;;;;;;;;;;;33.80;54.50;;;;;;5026625;28;20387;-80
2022/08/12 11:41:10;;;;;;;;;;;33.70;53.80;;;;;;5010545;28;20329;-83
2022/08/12 11:43:35;;;;;;;;;;;33.40;52.30;;;;;;4992859;28;19933;-78
2022/08/12 11:46:01;;;;;;;;;;;33.30;53.10;;;;;;5026338;28;20295;-82
2022/08/12 11:48:45;;;;;;;;;;;33.30;54.60;;;;;;5027343;28;19931;-81
2022/08/12 11:51:12;;;;;;;;;;;33.30;53.60;;;;;;5023178;28;20007;-84
2022/08/12 11:53:38;;;;;;;;;;;33.30;55.40;;;;;;5007446;28;20275;-80
2022/08/12 11:56:05;;;;;;;;;;;33.40;55.30;;;;;;5027384;28;19936;-79
2022/08/12 11:58:31;;;;;;;;;;;33.40;54.60;;;;;;5026677;28;19929;-83
2022/08/12 12:01:00;;;;;;;;;;;33.40;54.80;;;;;;5025235;28;19930;-81
2022/08/12 12:03:26;;;;;;;;;;;33.20;54.50;;;;;;5028934;28;20371;-82
2022/08/12 12:05:52;;;;;;;;;;;33.10;53.70;;;;;;5026918;28;19975;-82
2022/08/12 12:08:19;;;;;;;;;;;33.00;54.40;;;;;;5011217;28;20156;-83
2022/08/12 12:10:44;;;;;;;;;;;33.10;54.80;;;;;;5008584;28;20409;-82
2022/08/12 12:13:11;;;;;;;;;;;33.10;56.30;;;;;;5026763;28;19926;-81
2022/08/12 12:15:37;;;;;;;;;;;33.10;55.40;;;;;;5025113;28;20415;-82
2022/08/12 12:18:03;;;;;;;;;;;33.00;55.30;;;;;;5010497;28;20530;-82
2022/08/12 12:20:50;;;;;;;;;;;33.00;55.70;;;;;;5026754;28;20292;-81
2022/08/12 12:23:30;;;;;;;;;;;32.90;54.30;;;;;;5010477;28;20236;-82
2022/08/12 12:25:56;;;;;;;;;;;32.80;54.80;;;;;;5025124;28;19925;-80
2022/08/12 12:28:22;;;;;;;;;;;32.50;54.40;;;;;;5025769;28;19933;-82
2022/08/12 12:30:48;;;;;;;;;;;32.50;54.90;;;;;;5022384;28;19932;-88
2022/08/12 12:33:42;;;;;;;;;;;32.40;55.10;;;;;;5029191;28;20130;-80
2022/08/12 12:36:10;;;;;;;;;;;32.30;54.90;;;;;;5022670;28;20317;-78
2022/08/12 12:38:35;;;;;;;;;;;32.20;54.80;;;;;;4994151;28;20110;-82
2022/08/12 12:41:01;;;;;;;;;;;32.20;54.80;;;;;;5024390;28;20002;-81
2022/08/12 12:43:27;;;;;;;;;;;32.00;54.90;;;;;;5024541;28;19994;-84
2022/08/12 12:45:52;;;;;;;;;;;32.00;55.60;;;;;;5007387;28;20168;-81
2022/08/12 12:48:19;;;;;;;;;;;31.90;56.20;;;;;;5025377;28;19933;-80
2022/08/12 12:53:37;;;;;;;;;;;31.60;56.10;;;;;;5017319;28;20012;-78
2022/08/12 12:56:03;;;;;;;;;;;31.50;56.20;;;;;;5024181;28;19936;-78
2022/08/12 12:58:29;;;;;;;;;;;31.40;56.90;;;;;;5008741;28;19925;-80
2022/08/12 13:01:00;;;;;;;;;;;31.30;57.70;;;;;;5022549;28;19933;-79
2022/08/12 13:03:26;;;;;;;;;;;31.20;57.60;;;;;;5009022;28;20036;-77
2022/08/12 13:05:52;;;;;;;;;;;31.10;57.10;;;;;;5006433;28;20027;-80
2022/08/12 13:08:24;;;;;;;;;;;31.00;57.40;;;;;;5025300;28;19929;-82
2022/08/12 13:10:51;;;;;;;;;;;30.90;56.40;;;;;;5024225;28;19969;-80
2022/08/12 13:13:18;;;;;;;;;;;30.80;57.30;;;;;;5007910;28;19945;-80
2022/08/12 13:15:46;;;;;;;;;;;30.70;57.50;;;;;;5006795;28;20315;-78
2022/08/12 13:18:13;;;;;;;;;;;30.60;57.90;;;;;;5008534;28;19921;-81
2022/08/12 13:20:39;;;;;;;;;;;30.50;57.60;;;;;;5007662;28;19932;-81
2022/08/12 13:23:07;;;;;;;;;;;30.50;58.20;;;;;;5025609;28;20529;-79
2022/08/12 13:25:32;;;;;;;;;;;30.40;59.10;;;;;;5023900;28;19931;-81
2022/08/12 13:27:58;;;;;;;;;;;30.40;58.90;;;;;;5008801;28;19947;-79
2022/08/12 13:30:24;;;;;;;;;;;30.30;58.90;;;;;;5001780;28;19934;-78
2022/08/12 13:32:57;;;;;;;;;;;30.30;59.00;;;;;;5023512;28;19933;-79
2022/08/12 13:35:28;;;;;;;;;;;30.20;59.30;;;;;;5008595;28;20423;-79
2022/08/12 13:37:54;;;;;;;;;;;30.20;59.20;;;;;;5024553;28;19925;-83
2022/08/12 13:40:25;;;;;;;;;;;30.10;59.10;;;;;;5023760;28;19929;-80
2022/08/12 13:42:57;;;;;;;;;;;30.10;59.50;;;;;;5026278;28;19975;-80
2022/08/12 13:45:26;;;;;;;;;;;30.00;60.20;;;;;;5014131;28;20396;-84
2022/08/12 13:47:54;;;;;;;;;;;29.90;60.50;;;;;;5024788;28;19925;-79
2022/08/12 13:50:24;;;;;;;;;;;29.90;61.10;;;;;;5026156;28;19929;-79
2022/08/12 13:52:50;;;;;;;;;;;29.80;61.30;;;;;;5025216;28;19979;-79
2022/08/12 13:55:16;;;;;;;;;;;29.80;60.70;;;;;;5027699;28;19968;-79
2022/08/12 13:57:42;;;;;;;;;;;29.70;61.50;;;;;;5028191;28;19933;-84
2022/08/12 14:00:09;;;;;;;;;;;29.70;61.30;;;;;;5026857;28;19926;-79
2022/08/12 14:02:37;;;;;;;;;;;29.60;60.10;;;;;;4994251;28;20234;-78
2022/08/12 14:05:03;;;;;;;;;;;29.60;61.20;;;;;;5027994;28;19925;-80
2022/08/12 14:07:32;;;;;;;;;;;29.60;61.60;;;;;;5027742;28;20218;-78
2022/08/12 14:12:43;;;;;;;;;;;29.50;62.30;;;;;;5015102;28;19925;-79
2022/08/12 14:15:09;;;;;;;;;;;29.40;62.00;;;;;;5009468;28;19980;-81
2022/08/12 14:17:35;;;;;;;;;;;29.40;61.20;;;;;;5027938;28;20017;-80
2022/08/12 14:20:13;;;;;;;;;;;29.40;62.20;;;;;;5027153;28;20015;-79
2022/08/12 14:22:38;;;;;;;;;;;29.30;62.60;;;;;;5028903;28;19979;-78
2022/08/12 14:25:04;;;;;;;;;;;29.30;63.00;;;;;;5024791;28;19929;-79
2022/08/12 14:27:30;;;;;;;;;;;29.20;63.00;;;;;;5011708;28;19983;-78
2022/08/12 14:29:56;;;;;;;;;;;29.20;63.20;;;;;;5025599;28;19937;-78
2022/08/12 14:32:22;;;;;;;;;;;29.10;62.50;;;;;;5031186;28;19931;-77
2022/08/12 14:34:50;;;;;;;;;;;29.10;61.60;;;;;;5014831;28;21072;-82
2022/08/12 14:37:21;;;;;;;;;;;29.00;62.10;;;;;;5026947;28;19992;-84
2022/08/12 14:39:47;;;;;;;;;;;29.00;61.90;;;;;;5026120;28;19925;-78
2022/08/12 14:42:12;;;;;;;;;;;28.90;62.70;;;;;;5011220;28;19972;-79
2022/08/12 14:44:38;;;;;;;;;;;28.90;62.40;;;;;;5025819;28;20163;-82
2022/08/12 14:47:04;;;;;;;;;;;28.90;63.30;;;;;;5010433;28;20342;-78
2022/08/12 14:49:30;;;;;;;;;;;28.80;62.90;;;;;;5010263;28;19925;-80
2022/08/12 14:51:56;;;;;;;;;;;28.80;62.90;;;;;;5022103;28;20292;-79
2022/08/12 14:54:22;;;;;;;;;;;28.80;63.50;;;;;;5028320;28;19932;-78
2022/08/12 14:56:49;;;;;;;;;;;28.80;63.50;;;;;;5028414;28;20288;-79
2022/08/12 15:01:59;;;;;;;;;;;28.70;64.00;;;;;;5025383;28;20299;-85
2022/08/12 15:04:27;;;;;;;;;;;28.70;64.00;;;;;;5027102;28;19944;-81
2022/08/12 15:06:56;;;;;;;;;;;28.70;64.50;;;;;;5027614;28;19948;-81
2022/08/12 15:09:22;;;;;;;;;;;28.70;66.80;;;;;;5009782;28;20015;-79
2022/08/12 15:11:48;;;;;;;;;;;28.60;65.50;;;;;;5007310;28;20020;-80
2022/08/12 15:14:20;;;;;;;;;;;28.60;65.80;;;;;;4993251;28;19951;-81
2022/08/12 15:16:45;;;;;;;;;;;28.60;66.20;;;;;;5020321;28;20412;-79
2022/08/12 15:19:11;;;;;;;;;;;28.60;66.40;;;;;;4991548;28;20400;-84
2022/08/12 15:21:39;;;;;;;;;;;28.60;66.60;;;;;;5001712;28;19925;-79
2022/08/12 15:24:04;;;;;;;;;;;28.60;67.30;;;;;;5026197;28;19939;-80
2022/08/12 15:26:35;;;;;;;;;;;28.60;68.10;;;;;;5024526;28;20170;-84
2022/08/12 15:29:01;;;;;;;;;;;28.50;67.80;;;;;;5002788;28;19930;-81
2022/08/12 15:31:27;;;;;;;;;;;28.50;68.20;;;;;;5022109;28;19940;-88
2022/08/12 15:33:54;;;;;;;;;;;28.50;67.90;;;;;;5001341;28;19933;-80
2022/08/12 15:36:19;;;;;;;;;;;28.50;68.80;;;;;;5014784;28;19929;-79
2022/08/12 15:38:45;;;;;;;;;;;28.40;69.10;;;;;;5025825;28;19935;-82
2022/08/12 15:41:11;;;;;;;;;;;28.50;68.30;;;;;;5026570;28;19968;-79
2022/08/12 15:43:37;;;;;;;;;;;28.50;68.40;;;;;;5009051;28;19929;-84
2022/08/12 15:46:04;;;;;;;;;;;28.50;68.80;;;;;;5008741;28;19935;-82
2022/08/12 15:48:34;;;;;;;;;;;28.50;70.10;;;;;;5026508;28;19936;-79
2022/08/12 15:51:00;;;;;;;;;;;28.50;70.90;;;;;;4993852;28;19936;-87
2022/08/12 15:56:11;;;;;;;;;;;28.50;70.30;;;;;;5023462;28;20015;-79
2022/08/12 15:58:39;;;;;;;;;;;28.60;71.10;;;;;;5025514;28;20096;-85
2022/08/12 16:01:10;;;;;;;;;;;28.60;71.10;;;;;;5041425;28;19929;-84
2022/08/12 16:03:36;;;;;;;;;;;28.50;71.20;;;;;;5009617;28;19925;-85
2022/08/12 16:06:02;;;;;;;;;;;28.60;72.60;;;;;;5026254;28;19933;-86
2022/08/12 16:08:35;;;;;;;;;;;28.50;73.70;;;;;;5026092;28;19948;-82
2022/08/12 16:11:01;;;;;;;;;;;28.50;74.00;;;;;;5021620;28;19929;-87
2022/08/12 16:13:27;;;;;;;;;;;28.50;72.00;;;;;;5025003;28;19925;-85
2022/08/12 16:15:53;;;;;;;;;;;28.50;72.80;;;;;;4992398;28;20327;-80
2022/08/12 16:18:19;;;;;;;;;;;28.50;74.40;;;;;;5016050;28;20144;-90
2022/08/12 16:20:44;;;;;;;;;;;28.50;75.40;;;;;;5009139;28;19965;-80
2022/08/12 16:23:12;;;;;;;;;;;28.40;75.50;;;;;;5025884;28;19929;-82
2022/08/12 16:25:41;;;;;;;;;;;28.40;73.70;;;;;;5008721;28;19932;-87
2022/08/12 16:28:08;;;;;;;;;;;28.40;75.50;;;;;;5010071;28;20335;-82
2022/08/12 16:30:35;;;;;;;;;;;28.40;76.60;;;;;;5022224;28;19991;-79
2022/08/12 16:33:08;;;;;;;;;;;28.30;76.30;;;;;;5030076;28;20024;-80
2022/08/12 16:35:35;;;;;;;;;;;28.30;76.50;;;;;;5023572;28;21182;-80
2022/08/12 16:38:03;;;;;;;;;;;28.30;76.30;;;;;;5027178;28;20396;-79